Time;durP1;ratioP1;P1;durP2;ratioP2;P2;SDS_P1;SDS_P2;PMS_P1;PMS_P2;Temp;Humidity;BMP_temperature;BMP_pressure;BME280_temperature;BME280_humidity;BME280_pressure;Samples;Min_cycle;Max_cycle;Signal;HPM_P1;HPM_P2
2020/12/12 00:01:30;;;;;;;;;;;;;;;;;;5051190;28;20337;-75
2020/12/12 00:03:56;;;;;;;;;;;;;;;;;;5049979;28;19905;-74
2020/12/12 00:06:22;;;;;;;;;;;;;;;;;;5049359;28;19932;-75
2020/12/12 00:08:48;;;;;;;;;;;;;;;;;;5042775;28;20363;-75
2020/12/12 00:11:13;;;;;;;;;;;;;;;;;;5030192;28;19948;-74
2020/12/12 00:13:39;;;;;;;;;;;;;;;;;;5029968;28;19910;-75
2020/12/12 00:16:06;;;;;;;;;;;;;;;;;;5030257;28;19910;-75
2020/12/12 00:18:32;;;;;;;;;;;;;;;;;;5030110;28;20000;-74
2020/12/12 00:20:58;;;;;;;;;;;;;;;;;;5030190;28;19956;-75
2020/12/12 00:23:24;;;;;;;;;;;;;;;;;;5029888;28;19955;-75
2020/12/12 00:25:50;;;;;;;;;;;;;;;;;;5029913;28;20001;-75
2020/12/12 00:28:16;;;;;;;;;;;;;;;;;;5029380;28;19924;-75
2020/12/12 00:30:42;;;;;;;;;;;;;;;;;;5047313;28;19909;-75
2020/12/12 00:33:08;;;;;;;;;;;;;;;;;;5049509;28;19940;-75
2020/12/12 00:35:33;;;;;;;;;;;;;;;;;;5049815;28;19915;-75
2020/12/12 00:37:59;;;;;;;;;;;;;;;;;;5040947;28;19952;-76
2020/12/12 00:40:25;;;;;;;;;;;;;;;;;;5029687;28;19960;-76
2020/12/12 00:42:51;;;;;;;;;;;;;;;;;;5029561;28;19909;-75
2020/12/12 00:45:17;;;;;;;;;;;;;;;;;;5029586;28;19916;-75
2020/12/12 00:47:43;;;;;;;;;;;;;;;;;;5029480;28;19916;-75
2020/12/12 00:50:09;;;;;;;;;;;;;;;;;;5038295;28;19952;-75
2020/12/12 00:52:35;;;;;;;;;;;;;;;;;;5045605;28;19909;-75
2020/12/12 00:55:01;;;;;;;;;;;;;;;;;;5033582;28;20329;-75
2020/12/12 00:57:27;;;;;;;;;;;;;;;;;;5034393;28;19917;-76
2020/12/12 00:59:53;;;;;;;;;;;;;;;;;;5033025;28;20006;-76
2020/12/12 01:02:19;;;;;;;;;;;;;;;;;;5033130;28;20389;-75
2020/12/12 01:04:45;;;;;;;;;;;;;;;;;;5032986;28;19997;-75
2020/12/12 01:07:11;;;;;;;;;;;;;;;;;;5043044;28;19952;-75
2020/12/12 01:09:37;;;;;;;;;;;;;;;;;;5046690;28;19916;-75
2020/12/12 01:12:03;;;;;;;;;;;;;;;;;;5052464;28;19947;-75
2020/12/12 01:14:28;;;;;;;;;;;;;;;;;;5052644;28;19909;-75
2020/12/12 01:16:54;;;;;;;;;;;;;;;;;;5052644;28;19974;-75
2020/12/12 01:19:20;;;;;;;;;;;;;;;;;;5052343;28;20288;-75
2020/12/12 01:21:46;;;;;;;;;;;;;;;;;;5052339;28;19912;-75
2020/12/12 01:24:16;;;;;;;;;;;;;;;;;;5052483;28;20420;-75
2020/12/12 01:26:41;;;;;;;;;;;;;;;;;;5052312;28;20003;-75
2020/12/12 01:29:07;;;;;;;;;;;;;;;;;;5052519;28;19960;-75
2020/12/12 01:31:33;;;;;;;;;;;;;;;;;;5052805;28;19998;-75
2020/12/12 01:33:59;;;;;;;;;;;;;;;;;;5052449;28;19909;-75
2020/12/12 01:36:25;;;;;;;;;;;;;;;;;;5050374;28;19916;-75
2020/12/12 01:38:51;;;;;;;;;;;;;;;;;;5042856;28;19960;-75
2020/12/12 01:41:18;;;;;;;;;;;;;;;;;;5049481;28;20175;-75
2020/12/12 01:43:44;;;;;;;;;;;;;;;;;;5032295;28;20016;-75
2020/12/12 01:46:10;;;;;;;;;;;;;;;;;;5048377;28;19944;-75
2020/12/12 01:48:36;;;;;;;;;;;;;;;;;;5038491;28;19916;-75
2020/12/12 01:51:02;;;;;;;;;;;;;;;;;;5031993;28;19967;-75
2020/12/12 01:53:28;;;;;;;;;;;;;;;;;;5032048;28;19910;-76
2020/12/12 01:55:54;;;;;;;;;;;;;;;;;;5031947;28;19932;-75
2020/12/12 01:58:20;;;;;;;;;;;;;;;;;;5031912;28;19913;-76
2020/12/12 02:00:46;;;;;;;;;;;;;;;;;;5031837;28;19909;-75
2020/12/12 02:03:12;;;;;;;;;;;;;;;;;;5031709;28;19948;-76
2020/12/12 02:05:45;;;;;;;;;;;;;;;;;;5032222;28;20287;-75
2020/12/12 02:08:11;;;;;;;;;;;;;;;;;;5046319;28;19912;-76
2020/12/12 02:10:36;;;;;;;;;;;;;;;;;;5038144;28;19916;-75
2020/12/12 02:13:02;;;;;;;;;;;;;;;;;;5031965;28;19909;-75
2020/12/12 02:15:28;;;;;;;;;;;;;;;;;;5031697;28;19996;-75
2020/12/12 02:17:54;;;;;;;;;;;;;;;;;;5031779;28;19909;-76
2020/12/12 02:20:20;;;;;;;;;;;;;;;;;;5031959;28;19909;-74
2020/12/12 02:22:46;;;;;;;;;;;;;;;;;;5033415;28;19921;-75
2020/12/12 02:25:12;;;;;;;;;;;;;;;;;;5031818;28;19910;-76
2020/12/12 02:27:38;;;;;;;;;;;;;;;;;;5031263;28;19947;-76
2020/12/12 02:30:04;;;;;;;;;;;;;;;;;;5031555;28;19952;-76
2020/12/12 02:32:30;;;;;;;;;;;;;;;;;;5031332;28;19952;-75
2020/12/12 02:34:56;;;;;;;;;;;;;;;;;;5041047;28;19962;-75
2020/12/12 02:37:22;;;;;;;;;;;;;;;;;;5051144;28;19935;-76
2020/12/12 02:39:47;;;;;;;;;;;;;;;;;;5051200;28;19951;-76
2020/12/12 02:42:13;;;;;;;;;;;;;;;;;;5051526;28;19908;-76
2020/12/12 02:44:39;;;;;;;;;;;;;;;;;;5051360;28;20268;-75
2020/12/12 02:47:05;;;;;;;;;;;;;;;;;;5051262;28;20003;-76
2020/12/12 02:49:31;;;;;;;;;;;;;;;;;;5051007;28;19952;-75
2020/12/12 02:51:57;;;;;;;;;;;;;;;;;;5050859;28;19952;-76
2020/12/12 02:54:23;;;;;;;;;;;;;;;;;;5050910;28;19999;-75
2020/12/12 02:56:49;;;;;;;;;;;;;;;;;;5043244;28;19909;-75
2020/12/12 02:59:15;;;;;;;;;;;;;;;;;;5049624;28;19973;-76
2020/12/12 03:01:41;;;;;;;;;;;;;;;;;;5051183;28;19979;-76
2020/12/12 03:04:07;;;;;;;;;;;;;;;;;;5051076;28;19956;-77
2020/12/12 03:06:33;;;;;;;;;;;;;;;;;;5050096;28;19909;-76
2020/12/12 03:08:59;;;;;;;;;;;;;;;;;;5042421;28;19909;-76
2020/12/12 03:11:24;;;;;;;;;;;;;;;;;;5031206;28;19909;-76
2020/12/12 03:13:50;;;;;;;;;;;;;;;;;;5031181;28;19955;-76
2020/12/12 03:16:16;;;;;;;;;;;;;;;;;;5030512;28;19975;-76
2020/12/12 03:18:42;;;;;;;;;;;;;;;;;;5030982;28;19959;-76
2020/12/12 03:21:08;;;;;;;;;;;;;;;;;;5030719;28;19913;-76
2020/12/12 03:23:34;;;;;;;;;;;;;;;;;;5030685;28;19913;-76
2020/12/12 03:26:00;;;;;;;;;;;;;;;;;;5030986;28;19915;-76
2020/12/12 03:28:26;;;;;;;;;;;;;;;;;;5032406;28;19975;-76
2020/12/12 03:30:52;;;;;;;;;;;;;;;;;;5030709;28;19909;-76
2020/12/12 03:33:18;;;;;;;;;;;;;;;;;;5031195;28;20347;-76
2020/12/12 03:35:44;;;;;;;;;;;;;;;;;;5030737;28;20260;-75
2020/12/12 03:38:10;;;;;;;;;;;;;;;;;;5049925;28;19913;-76
2020/12/12 03:40:36;;;;;;;;;;;;;;;;;;5049765;28;19923;-76
2020/12/12 03:43:02;;;;;;;;;;;;;;;;;;5033832;28;20287;-75
2020/12/12 03:45:28;;;;;;;;;;;;;;;;;;5030926;28;19909;-76
2020/12/12 03:47:54;;;;;;;;;;;;;;;;;;5030980;28;19967;-76
2020/12/12 03:50:27;;;;;;;;;;;;;;;;;;5030649;28;19961;-76
2020/12/12 03:52:53;;;;;;;;;;;;;;;;;;5030663;28;19910;-75
2020/12/12 03:55:19;;;;;;;;;;;;;;;;;;5037072;28;20355;-76
2020/12/12 03:57:45;;;;;;;;;;;;;;;;;;5045573;28;20302;-75
2020/12/12 04:00:11;;;;;;;;;;;;;;;;;;5032402;28;19909;-75
2020/12/12 04:02:37;;;;;;;;;;;;;;;;;;5036476;28;19920;-76
2020/12/12 04:05:03;;;;;;;;;;;;;;;;;;5053403;28;19917;-75
2020/12/12 04:07:29;;;;;;;;;;;;;;;;;;5051650;28;19908;-75
2020/12/12 04:09:55;;;;;;;;;;;;;;;;;;5050091;28;20026;-75
2020/12/12 04:12:20;;;;;;;;;;;;;;;;;;5049467;28;19944;-76
2020/12/12 04:14:46;;;;;;;;;;;;;;;;;;5043479;28;19920;-75
2020/12/12 04:17:12;;;;;;;;;;;;;;;;;;5030269;28;19909;-75
2020/12/12 04:19:38;;;;;;;;;;;;;;;;;;5029665;28;19968;-75
2020/12/12 04:22:04;;;;;;;;;;;;;;;;;;5029879;28;19909;-75
2020/12/12 04:24:30;;;;;;;;;;;;;;;;;;5029979;28;19906;-75
2020/12/12 04:26:56;;;;;;;;;;;;;;;;;;5032114;28;19913;-75
2020/12/12 04:29:22;;;;;;;;;;;;;;;;;;5033602;28;19921;-75
2020/12/12 04:31:48;;;;;;;;;;;;;;;;;;5033606;28;19956;-75
2020/12/12 04:34:14;;;;;;;;;;;;;;;;;;5034596;28;19948;-75
2020/12/12 04:36:40;;;;;;;;;;;;;;;;;;5033645;28;19955;-75
2020/12/12 04:39:06;;;;;;;;;;;;;;;;;;5041268;28;20016;-76
2020/12/12 04:41:32;;;;;;;;;;;;;;;;;;5051567;28;19975;-75
2020/12/12 04:43:58;;;;;;;;;;;;;;;;;;5053452;28;20007;-75
2020/12/12 04:46:24;;;;;;;;;;;;;;;;;;5053366;28;20013;-75
2020/12/12 04:48:50;;;;;;;;;;;;;;;;;;5053340;28;19909;-75
2020/12/12 04:51:15;;;;;;;;;;;;;;;;;;5053116;28;19952;-75
2020/12/12 04:53:41;;;;;;;;;;;;;;;;;;5053104;28;19909;-75
2020/12/12 04:56:07;;;;;;;;;;;;;;;;;;5053084;28;19967;-75
2020/12/12 04:58:33;;;;;;;;;;;;;;;;;;5053024;28;19963;-75
2020/12/12 05:00:59;;;;;;;;;;;;;;;;;;5054487;28;19916;-75
2020/12/12 05:03:25;;;;;;;;;;;;;;;;;;5053434;28;19944;-75
2020/12/12 05:05:51;;;;;;;;;;;;;;;;;;5052554;28;19909;-75
2020/12/12 05:08:17;;;;;;;;;;;;;;;;;;5044080;28;19944;-75
2020/12/12 05:10:43;;;;;;;;;;;;;;;;;;5054124;28;19913;-75
2020/12/12 05:13:09;;;;;;;;;;;;;;;;;;5052733;28;19959;-75
2020/12/12 05:15:35;;;;;;;;;;;;;;;;;;5052916;28;19999;-75
2020/12/12 05:18:01;;;;;;;;;;;;;;;;;;5052534;28;20348;-75
2020/12/12 05:20:27;;;;;;;;;;;;;;;;;;5052750;28;19909;-75
2020/12/12 05:22:52;;;;;;;;;;;;;;;;;;5052429;28;19931;-75
2020/12/12 05:25:18;;;;;;;;;;;;;;;;;;5052694;28;19963;-75
2020/12/12 05:27:44;;;;;;;;;;;;;;;;;;5053596;28;19963;-76
2020/12/12 05:30:10;;;;;;;;;;;;;;;;;;5052573;28;19909;-75
2020/12/12 05:32:37;;;;;;;;;;;;;;;;;;5052302;28;19913;-75
2020/12/12 05:35:02;;;;;;;;;;;;;;;;;;5052655;28;20294;-75
2020/12/12 05:37:28;;;;;;;;;;;;;;;;;;5052098;28;19909;-75
2020/12/12 05:39:54;;;;;;;;;;;;;;;;;;5051480;28;19952;-75
2020/12/12 05:42:21;;;;;;;;;;;;;;;;;;5049204;28;19998;-75
2020/12/12 05:44:46;;;;;;;;;;;;;;;;;;5032302;28;19920;-75
2020/12/12 05:47:12;;;;;;;;;;;;;;;;;;5032267;28;19909;-75
2020/12/12 05:49:38;;;;;;;;;;;;;;;;;;5032210;28;20423;-75
2020/12/12 05:52:04;;;;;;;;;;;;;;;;;;5031925;28;20387;-75
2020/12/12 05:54:30;;;;;;;;;;;;;;;;;;5032373;28;19909;-75
2020/12/12 05:56:56;;;;;;;;;;;;;;;;;;5032080;28;19920;-75
2020/12/12 05:59:22;;;;;;;;;;;;;;;;;;5032052;28;19956;-75
2020/12/12 06:01:48;;;;;;;;;;;;;;;;;;5031931;28;20589;-75
2020/12/12 06:04:14;;;;;;;;;;;;;;;;;;5032162;28;19909;-75
2020/12/12 06:06:40;;;;;;;;;;;;;;;;;;5033630;28;19913;-75
2020/12/12 06:09:06;;;;;;;;;;;;;;;;;;5051628;28;19908;-75
2020/12/12 06:11:32;;;;;;;;;;;;;;;;;;5052001;28;19916;-75
2020/12/12 06:13:58;;;;;;;;;;;;;;;;;;5053692;28;19909;-75
2020/12/12 06:16:24;;;;;;;;;;;;;;;;;;5051978;28;20274;-74
2020/12/12 06:18:50;;;;;;;;;;;;;;;;;;5045570;28;20003;-75
2020/12/12 06:21:16;;;;;;;;;;;;;;;;;;5039863;28;19943;-75
2020/12/12 06:23:42;;;;;;;;;;;;;;;;;;5031700;28;19991;-75
2020/12/12 06:26:08;;;;;;;;;;;;;;;;;;5031953;28;20278;-75
2020/12/12 06:28:34;;;;;;;;;;;;;;;;;;5031521;28;19924;-74
2020/12/12 06:31:00;;;;;;;;;;;;;;;;;;5031478;28;19910;-75
2020/12/12 06:33:26;;;;;;;;;;;;;;;;;;5031502;28;19944;-75
2020/12/12 06:35:53;;;;;;;;;;;;;;;;;;5031493;28;19956;-75
2020/12/12 06:38:19;;;;;;;;;;;;;;;;;;5031310;28;19920;-75
2020/12/12 06:40:45;;;;;;;;;;;;;;;;;;5041672;28;20374;-75
2020/12/12 06:43:11;;;;;;;;;;;;;;;;;;5043319;28;19912;-75
2020/12/12 06:45:37;;;;;;;;;;;;;;;;;;5051577;28;19913;-76
2020/12/12 06:48:03;;;;;;;;;;;;;;;;;;5051874;28;20546;-75
2020/12/12 06:50:36;;;;;;;;;;;;;;;;;;5051070;28;19909;-75
2020/12/12 06:53:05;;;;;;;;;;;;;;;;;;5051393;28;19938;-75
2020/12/12 06:55:31;;;;;;;;;;;;;;;;;;5051921;28;19963;-75
2020/12/12 06:58:00;;;;;;;;;;;;;;;;;;5052566;28;19909;-75
2020/12/12 07:00:26;;;;;;;;;;;;;;;;;;5052072;28;19959;-75
2020/12/12 07:02:52;;;;;;;;;;;;;;;;;;5052703;28;19916;-75
2020/12/12 07:05:18;;;;;;;;;;;;;;;;;;5051857;28;19912;-76
2020/12/12 07:07:44;;;;;;;;;;;;;;;;;;5052080;28;19916;-75
2020/12/12 07:10:10;;;;;;;;;;;;;;;;;;5042276;28;19909;-75
2020/12/12 07:12:36;;;;;;;;;;;;;;;;;;5048585;28;19913;-76
2020/12/12 07:15:02;;;;;;;;;;;;;;;;;;5047528;28;20378;-76
2020/12/12 07:17:28;;;;;;;;;;;;;;;;;;5050280;28;19909;-76
2020/12/12 07:19:54;;;;;;;;;;;;;;;;;;5044287;28;19982;-76
2020/12/12 07:22:26;;;;;;;;;;;;;;;;;;5031213;28;19909;-76
2020/12/12 07:24:53;;;;;;;;;;;;;;;;;;5030435;28;20383;-75
2020/12/12 07:27:19;;;;;;;;;;;;;;;;;;5036524;28;19912;-75
2020/12/12 07:29:45;;;;;;;;;;;;;;;;;;5050521;28;20442;-75
2020/12/12 07:32:11;;;;;;;;;;;;;;;;;;5043173;28;20383;-76
2020/12/12 07:34:36;;;;;;;;;;;;;;;;;;5050640;28;19913;-76
2020/12/12 07:37:03;;;;;;;;;;;;;;;;;;5039388;28;20397;-75
2020/12/12 07:39:29;;;;;;;;;;;;;;;;;;5044080;28;20390;-75
2020/12/12 07:41:55;;;;;;;;;;;;;;;;;;5035567;28;19909;-75
2020/12/12 07:44:21;;;;;;;;;;;;;;;;;;5050044;28;19908;-75
2020/12/12 07:46:47;;;;;;;;;;;;;;;;;;5048362;28;20458;-75
2020/12/12 07:49:13;;;;;;;;;;;;;;;;;;5045344;28;19920;-76
2020/12/12 07:51:39;;;;;;;;;;;;;;;;;;5049281;28;19912;-75
2020/12/12 07:54:04;;;;;;;;;;;;;;;;;;5048886;28;20014;-75
2020/12/12 07:56:30;;;;;;;;;;;;;;;;;;5048689;28;19962;-75
2020/12/12 07:58:59;;;;;;;;;;;;;;;;;;5047544;28;19956;-76
2020/12/12 08:01:25;;;;;;;;;;;;;;;;;;5053091;28;19955;-75
2020/12/12 08:03:51;;;;;;;;;;;;;;;;;;5056261;28;19956;-77
2020/12/12 08:06:17;;;;;;;;;;;;;;;;;;5059405;28;19974;-74
2020/12/12 08:08:43;;;;;;;;;;;;;;;;;;5049874;28;20007;-75
2020/12/12 08:11:09;;;;;;;;;;;;;;;;;;5054301;28;19916;-75
2020/12/12 08:13:35;;;;;;;;;;;;;;;;;;5055531;28;19915;-74
2020/12/12 08:16:01;;;;;;;;;;;;;;;;;;5054421;28;19998;-75
2020/12/12 08:18:27;;;;;;;;;;;;;;;;;;5058781;28;19913;-77
2020/12/12 08:20:52;;;;;;;;;;;;;;;;;;5056380;28;19909;-75
2020/12/12 08:23:18;;;;;;;;;;;;;;;;;;5057474;28;19912;-75
2020/12/12 08:25:44;;;;;;;;;;;;;;;;;;5056409;28;19944;-75
2020/12/12 08:28:10;;;;;;;;;;;;;;;;;;5055990;28;19974;-75
2020/12/12 08:30:36;;;;;;;;;;;;;;;;;;5056153;28;19920;-76
2020/12/12 08:33:02;;;;;;;;;;;;;;;;;;5056170;28;19950;-77
2020/12/12 08:35:28;;;;;;;;;;;;;;;;;;5056133;28;20015;-76
2020/12/12 08:37:54;;;;;;;;;;;;;;;;;;5055252;28;19972;-76
2020/12/12 08:40:20;;;;;;;;;;;;;;;;;;5056354;28;20411;-75
2020/12/12 08:42:46;;;;;;;;;;;;;;;;;;5056531;28;20021;-75
2020/12/12 08:45:12;;;;;;;;;;;;;;;;;;5050591;28;19916;-75
2020/12/12 08:47:38;;;;;;;;;;;;;;;;;;5050888;28;19964;-76
2020/12/12 08:50:04;;;;;;;;;;;;;;;;;;5036360;28;19909;-75
2020/12/12 08:52:30;;;;;;;;;;;;;;;;;;5036250;28;20406;-75
2020/12/12 08:54:56;;;;;;;;;;;;;;;;;;5036528;28;20402;-75
2020/12/12 08:57:22;;;;;;;;;;;;;;;;;;5036127;28;19952;-76
2020/12/12 08:59:47;;;;;;;;;;;;;;;;;;5036210;28;19953;-76
2020/12/12 09:02:17;;;;;;;;;;;;;;;;;;5036153;28;19921;-75
2020/12/12 09:04:43;;;;;;;;;;;;;;;;;;5051856;28;19924;-75
2020/12/12 09:07:09;;;;;;;;;;;;;;;;;;5049184;28;19920;-76
2020/12/12 09:09:35;;;;;;;;;;;;;;;;;;5051039;28;19925;-76
2020/12/12 09:12:01;;;;;;;;;;;;;;;;;;5044614;28;19908;-76
2020/12/12 09:14:27;;;;;;;;;;;;;;;;;;5052035;28;19913;-75
2020/12/12 09:16:53;;;;;;;;;;;;;;;;;;5050832;28;19991;-76
2020/12/12 09:19:19;;;;;;;;;;;;;;;;;;5048499;28;19917;-76
2020/12/12 09:21:45;;;;;;;;;;;;;;;;;;5047074;28;20355;-75
2020/12/12 09:24:11;;;;;;;;;;;;;;;;;;5040841;28;19928;-76
2020/12/12 09:26:37;;;;;;;;;;;;;;;;;;5040846;28;19909;-75
2020/12/12 09:29:03;;;;;;;;;;;;;;;;;;5042610;28;20398;-76
2020/12/12 09:31:30;;;;;;;;;;;;;;;;;;5048006;28;19914;-75
2020/12/12 09:33:56;;;;;;;;;;;;;;;;;;5043768;28;19919;-75
2020/12/12 09:36:22;;;;;;;;;;;;;;;;;;5052860;28;19936;-77
2020/12/12 09:38:48;;;;;;;;;;;;;;;;;;5040941;28;19912;-75
2020/12/12 09:41:14;;;;;;;;;;;;;;;;;;5036807;28;19956;-75
2020/12/12 09:43:40;;;;;;;;;;;;;;;;;;5037513;28;19945;-75
2020/12/12 09:46:06;;;;;;;;;;;;;;;;;;5047881;28;20385;-75
2020/12/12 09:48:32;;;;;;;;;;;;;;;;;;5054626;28;20329;-75
2020/12/12 09:50:58;;;;;;;;;;;;;;;;;;5052945;28;20576;-76
2020/12/12 09:53:24;;;;;;;;;;;;;;;;;;5041050;28;19959;-76
2020/12/12 09:55:52;;;;;;;;;;;;;;;;;;5033700;28;19932;-75
2020/12/12 09:58:18;;;;;;;;;;;;;;;;;;5044628;28;19936;-76
2020/12/12 10:00:44;;;;;;;;;;;;;;;;;;5048801;28;19909;-76
2020/12/12 10:03:10;;;;;;;;;;;;;;;;;;5037654;28;19999;-76
2020/12/12 10:05:36;;;;;;;;;;;;;;;;;;5036719;28;19921;-75
2020/12/12 10:08:02;;;;;;;;;;;;;;;;;;5051729;28;19948;-73
2020/12/12 10:10:28;;;;;;;;;;;;;;;;;;5044287;28;19916;-77
2020/12/12 10:12:54;;;;;;;;;;;;;;;;;;5043153;28;20483;-76
2020/12/12 10:15:20;;;;;;;;;;;;;;;;;;5039804;28;19920;-76
2020/12/12 10:17:46;;;;;;;;;;;;;;;;;;5047537;28;19956;-75
2020/12/12 10:20:12;;;;;;;;;;;;;;;;;;5051133;28;19917;-76
2020/12/12 10:22:39;;;;;;;;;;;;;;;;;;5048323;28;19995;-76
2020/12/12 10:25:05;;;;;;;;;;;;;;;;;;5050104;28;19935;-77
2020/12/12 10:27:31;;;;;;;;;;;;;;;;;;5043490;28;19909;-77
2020/12/12 10:29:57;;;;;;;;;;;;;;;;;;5043762;28;19998;-77
2020/12/12 10:32:26;;;;;;;;;;;;;;;;;;5051133;28;19956;-76
2020/12/12 10:34:52;;;;;;;;;;;;;;;;;;5050751;28;20421;-75
2020/12/12 10:37:18;;;;;;;;;;;;;;;;;;5042607;28;19956;-75
2020/12/12 10:42:28;;;;;;;;;;;;;;;;;;5051709;28;20398;-74
2020/12/12 10:44:55;;;;;;;;;;;;;;;;;;5053975;28;19909;-74
2020/12/12 10:47:20;;;;;;;;;;;;;;;;;;5051144;28;19971;-75
2020/12/12 10:49:46;;;;;;;;;;;;;;;;;;5041630;28;19912;-76
2020/12/12 10:52:12;;;;;;;;;;;;;;;;;;5045938;28;19976;-75
2020/12/12 10:54:39;;;;;;;;;;;;;;;;;;5044938;28;19909;-75
2020/12/12 10:57:05;;;;;;;;;;;;;;;;;;5040403;28;19960;-75
2020/12/12 10:59:31;;;;;;;;;;;;;;;;;;5051494;28;19912;-75
2020/12/12 11:01:57;;;;;;;;;;;;;;;;;;5047027;28;19932;-75
2020/12/12 11:04:23;;;;;;;;;;;;;;;;;;5047380;28;19909;-75
2020/12/12 11:06:50;;;;;;;;;;;;;;;;;;5056405;28;19913;-75
2020/12/12 11:09:16;;;;;;;;;;;;;;;;;;5047319;28;19967;-74
2020/12/12 11:11:42;;;;;;;;;;;;;;;;;;5052035;28;19908;-74
2020/12/12 11:14:08;;;;;;;;;;;;;;;;;;5040894;28;19913;-74
2020/12/12 11:16:35;;;;;;;;;;;;;;;;;;5056200;28;19920;-75
2020/12/12 11:19:03;;;;;;;;;;;;;;;;;;5066955;28;19913;-74
2020/12/12 11:21:30;;;;;;;;;;;;;;;;;;5067380;28;19909;-75
2020/12/12 11:23:56;;;;;;;;;;;;;;;;;;5068843;28;19909;-75
2020/12/12 11:26:22;;;;;;;;;;;;;;;;;;5061352;28;19919;-75
2020/12/12 11:28:48;;;;;;;;;;;;;;;;;;5051412;28;19917;-74
2020/12/12 11:31:14;;;;;;;;;;;;;;;;;;5052296;28;19969;-75
2020/12/12 11:33:41;;;;;;;;;;;;;;;;;;5050883;28;19932;-75
2020/12/12 11:36:26;;;;;;;;;;;;;;;;;;5050228;28;20289;-75
2020/12/12 11:38:57;;;;;;;;;;;;;;;;;;5050614;28;19935;-75
2020/12/12 11:46:46;;;;;;;;;;;;;;;;;;5047815;28;19923;-74
2020/12/12 11:49:12;;;;;;;;;;;;;;;;;;5050396;28;20290;-75
2020/12/12 11:51:38;;;;;;;;;;;;;;;;;;5049955;28;20011;-74
2020/12/12 11:54:04;;;;;;;;;;;;;;;;;;5051809;28;19908;-74
2020/12/12 11:56:30;;;;;;;;;;;;;;;;;;5051770;28;20362;-74
2020/12/12 11:58:56;;;;;;;;;;;;;;;;;;5051545;28;19940;-74
2020/12/12 12:01:22;;;;;;;;;;;;;;;;;;5051644;28;19916;-74
2020/12/12 12:03:48;;;;;;;;;;;;;;;;;;5050797;28;20313;-74
2020/12/12 12:06:14;;;;;;;;;;;;;;;;;;5050543;28;19916;-74
2020/12/12 12:08:51;;;;;;;;;;;;;;;;;;5051736;28;20283;-75
2020/12/12 12:11:21;;;;;;;;;;;;;;;;;;5050339;28;20253;-74
2020/12/12 12:13:50;;;;;;;;;;;;;;;;;;5050461;28;19908;-75
2020/12/12 12:16:17;;;;;;;;;;;;;;;;;;5031751;28;19913;-74
2020/12/12 12:18:43;;;;;;;;;;;;;;;;;;5030821;28;19919;-75
2020/12/12 12:21:09;;;;;;;;;;;;;;;;;;5049543;28;20385;-75
2020/12/12 12:23:35;;;;;;;;;;;;;;;;;;5049596;28;19964;-74
2020/12/12 12:26:04;;;;;;;;;;;;;;;;;;5049936;28;19909;-75
2020/12/12 12:28:31;;;;;;;;;;;;;;;;;;5047647;28;19916;-75
2020/12/12 12:30:57;;;;;;;;;;;;;;;;;;5050798;28;20003;-75
2020/12/12 12:33:23;;;;;;;;;;;;;;;;;;5050223;28;19955;-75
2020/12/12 12:35:49;;;;;;;;;;;;;;;;;;5043117;28;20363;-75
2020/12/12 12:38:15;;;;;;;;;;;;;;;;;;5049626;28;19909;-75
2020/12/12 12:40:40;;;;;;;;;;;;;;;;;;5043416;28;19915;-75
2020/12/12 12:43:06;;;;;;;;;;;;;;;;;;5048667;28;19908;-75
2020/12/12 12:45:32;;;;;;;;;;;;;;;;;;5049465;28;19909;-75
2020/12/12 12:48:01;;;;;;;;;;;;;;;;;;5048195;28;19909;-75
2020/12/12 12:50:33;;;;;;;;;;;;;;;;;;5053387;28;19916;-76
2020/12/12 12:52:59;;;;;;;;;;;;;;;;;;5053678;28;19941;-76
2020/12/12 12:55:25;;;;;;;;;;;;;;;;;;5053955;28;20417;-75
2020/12/12 12:57:52;;;;;;;;;;;;;;;;;;5048729;28;19909;-75
2020/12/12 13:00:18;;;;;;;;;;;;;;;;;;5033410;28;19920;-75
2020/12/12 13:02:44;;;;;;;;;;;;;;;;;;5037129;28;20286;-74
2020/12/12 13:05:13;;;;;;;;;;;;;;;;;;5042760;28;19959;-75
2020/12/12 13:07:39;;;;;;;;;;;;;;;;;;5032944;28;20406;-75
2020/12/12 13:10:05;;;;;;;;;;;;;;;;;;5043237;28;19909;-75
2020/12/12 13:12:31;;;;;;;;;;;;;;;;;;5045248;28;19962;-75
2020/12/12 13:14:57;;;;;;;;;;;;;;;;;;5044518;28;19908;-76
2020/12/12 13:17:22;;;;;;;;;;;;;;;;;;5050198;28;19920;-75
2020/12/12 13:20:07;;;;;;;;;;;;;;;;;;5039724;28;19952;-76
2020/12/12 13:22:33;;;;;;;;;;;;;;;;;;5037198;28;19909;-75
2020/12/12 13:24:59;;;;;;;;;;;;;;;;;;5048742;28;19917;-75
2020/12/12 13:27:25;;;;;;;;;;;;;;;;;;5042800;28;19912;-75
2020/12/12 13:32:23;;;;;;;;;;;;;;;;;;5044971;28;20528;-75
2020/12/12 13:34:49;;;;;;;;;;;;;;;;;;5052871;28;19908;-75
2020/12/12 13:37:16;;;;;;;;;;;;;;;;;;5042747;28;20053;-74
2020/12/12 13:39:46;;;;;;;;;;;;;;;;;;5049022;28;20007;-75
2020/12/12 13:42:12;;;;;;;;;;;;;;;;;;5040843;28;20031;-76
2020/12/12 13:44:39;;;;;;;;;;;;;;;;;;5047174;28;20001;-76
2020/12/12 13:47:05;;;;;;;;;;;;;;;;;;5049111;28;19909;-76
2020/12/12 13:49:31;;;;;;;;;;;;;;;;;;5038895;28;19996;-76
2020/12/12 13:51:57;;;;;;;;;;;;;;;;;;5045805;28;19910;-75
2020/12/12 13:54:22;;;;;;;;;;;;;;;;;;5043883;28;20012;-76
2020/12/12 13:56:48;;;;;;;;;;;;;;;;;;5044853;28;19909;-76
2020/12/12 13:59:14;;;;;;;;;;;;;;;;;;5048086;28;19917;-77
2020/12/12 14:01:41;;;;;;;;;;;;;;;;;;5034824;28;19909;-76
2020/12/12 14:04:07;;;;;;;;;;;;;;;;;;5042103;28;19913;-76
2020/12/12 14:06:33;;;;;;;;;;;;;;;;;;5048429;28;19971;-77
2020/12/12 14:18:20;;;;;;;;;;;;;;;;;;5046616;28;20016;-75
2020/12/12 14:24:41;;;;;;;;;;;;;;;;;;5033409;28;19994;-76
2020/12/12 14:29:51;;;;;;;;;;;;;;;;;;5046224;28;20357;-76
2020/12/12 14:32:32;;;;;;;;;;;;;;;;;;5051748;28;19956;-77
2020/12/12 14:35:08;;;;;;;;;;;;;;;;;;5049207;28;19966;-78
2020/12/12 14:37:47;;;;;;;;;;;;;;;;;;5052028;28;19909;-75
2020/12/12 14:40:13;;;;;;;;;;;;;;;;;;5051313;28;20394;-75
2020/12/12 14:42:39;;;;;;;;;;;;;;;;;;5051404;28;20410;-76
2020/12/12 14:45:05;;;;;;;;;;;;;;;;;;5041958;28;19917;-75
2020/12/12 14:47:31;;;;;;;;;;;;;;;;;;5051123;28;19909;-77
2020/12/12 14:49:57;;;;;;;;;;;;;;;;;;5051335;28;19909;-76
2020/12/12 14:52:23;;;;;;;;;;;;;;;;;;5050784;28;19916;-76
2020/12/12 14:54:49;;;;;;;;;;;;;;;;;;5051383;28;19949;-76
2020/12/12 14:57:15;;;;;;;;;;;;;;;;;;5051276;28;19913;-76
2020/12/12 14:59:41;;;;;;;;;;;;;;;;;;5050897;28;19956;-76
2020/12/12 15:02:07;;;;;;;;;;;;;;;;;;5051122;28;20003;-76
2020/12/12 15:04:33;;;;;;;;;;;;;;;;;;5051052;28;19909;-76
2020/12/12 15:06:59;;;;;;;;;;;;;;;;;;5051000;28;19908;-77
2020/12/12 15:09:25;;;;;;;;;;;;;;;;;;5052274;28;19916;-77
2020/12/12 15:11:51;;;;;;;;;;;;;;;;;;5049975;28;19913;-76
2020/12/12 15:14:16;;;;;;;;;;;;;;;;;;5042623;28;19999;-76
2020/12/12 15:16:42;;;;;;;;;;;;;;;;;;5051403;28;19958;-76
2020/12/12 15:19:08;;;;;;;;;;;;;;;;;;5050934;28;19974;-76
2020/12/12 15:21:34;;;;;;;;;;;;;;;;;;5050791;28;19909;-76
2020/12/12 15:24:00;;;;;;;;;;;;;;;;;;5051073;28;19948;-76
2020/12/12 15:26:32;;;;;;;;;;;;;;;;;;5050629;28;20038;-77
2020/12/12 15:28:58;;;;;;;;;;;;;;;;;;5050414;28;19998;-75
2020/12/12 15:31:24;;;;;;;;;;;;;;;;;;5050566;28;19980;-76
2020/12/12 15:33:50;;;;;;;;;;;;;;;;;;5050815;28;19915;-76
2020/12/12 15:36:16;;;;;;;;;;;;;;;;;;5051520;28;19962;-76
2020/12/12 15:38:42;;;;;;;;;;;;;;;;;;5050128;28;19912;-76
2020/12/12 15:41:08;;;;;;;;;;;;;;;;;;5050559;28;19908;-76
2020/12/12 15:43:34;;;;;;;;;;;;;;;;;;5042226;28;20366;-76
2020/12/12 15:46:00;;;;;;;;;;;;;;;;;;5033732;28;20299;-76
2020/12/12 15:48:26;;;;;;;;;;;;;;;;;;5030517;28;19935;-76
2020/12/12 15:50:52;;;;;;;;;;;;;;;;;;5030743;28;19909;-76
2020/12/12 15:53:18;;;;;;;;;;;;;;;;;;5030762;28;19917;-76
2020/12/12 15:55:44;;;;;;;;;;;;;;;;;;5032018;28;19916;-76
2020/12/12 15:58:09;;;;;;;;;;;;;;;;;;5032949;28;19916;-76
2020/12/12 16:00:35;;;;;;;;;;;;;;;;;;5038442;28;19974;-76
2020/12/12 16:03:03;;;;;;;;;;;;;;;;;;5034331;28;19952;-76
2020/12/12 16:05:29;;;;;;;;;;;;;;;;;;5033631;28;19916;-76
2020/12/12 16:07:55;;;;;;;;;;;;;;;;;;5035757;28;20399;-76
2020/12/12 16:10:21;;;;;;;;;;;;;;;;;;5033512;28;20332;-75
2020/12/12 16:12:47;;;;;;;;;;;;;;;;;;5047083;28;19976;-76
2020/12/12 16:15:14;;;;;;;;;;;;;;;;;;5043927;28;20320;-75
2020/12/12 16:17:40;;;;;;;;;;;;;;;;;;5030137;28;19909;-75
2020/12/12 16:20:06;;;;;;;;;;;;;;;;;;5030116;28;19968;-75
2020/12/12 16:22:32;;;;;;;;;;;;;;;;;;5031267;28;19909;-76
2020/12/12 16:24:57;;;;;;;;;;;;;;;;;;5034475;28;19909;-76
2020/12/12 16:27:23;;;;;;;;;;;;;;;;;;5033829;28;19909;-76
2020/12/12 16:29:49;;;;;;;;;;;;;;;;;;5037201;28;19959;-76
2020/12/12 16:32:15;;;;;;;;;;;;;;;;;;5045361;28;19913;-76
2020/12/12 16:34:41;;;;;;;;;;;;;;;;;;5053921;28;19909;-76
2020/12/12 16:37:07;;;;;;;;;;;;;;;;;;5053683;28;20026;-75
2020/12/12 16:39:33;;;;;;;;;;;;;;;;;;5053517;28;19912;-75
2020/12/12 16:42:02;;;;;;;;;;;;;;;;;;5053276;28;19935;-76
2020/12/12 16:44:28;;;;;;;;;;;;;;;;;;5049441;28;20386;-75
2020/12/12 16:46:54;;;;;;;;;;;;;;;;;;5033797;28;19940;-76
2020/12/12 16:49:20;;;;;;;;;;;;;;;;;;5033747;28;19916;-75
2020/12/12 16:51:46;;;;;;;;;;;;;;;;;;5034239;28;19910;-75
2020/12/12 16:54:14;;;;;;;;;;;;;;;;;;5033996;28;19916;-75
2020/12/12 16:56:44;;;;;;;;;;;;;;;;;;5033779;28;19909;-76
2020/12/12 16:59:10;;;;;;;;;;;;;;;;;;5033476;28;19913;-75
2020/12/12 17:01:36;;;;;;;;;;;;;;;;;;5033810;28;20264;-76
2020/12/12 17:04:02;;;;;;;;;;;;;;;;;;5033953;28;20004;-76
2020/12/12 17:06:27;;;;;;;;;;;;;;;;;;5034019;28;19909;-76